Time;durP1;ratioP1;P1;durP2;ratioP2;P2;SDS_P1;SDS_P2;PMS_P1;PMS_P2;Temp;Humidity;BMP_temperature;BMP_pressure;BME280_temperature;BME280_humidity;BME280_pressure;Samples;Min_cycle;Max_cycle;Signal;HPM_P1;HPM_P2
2023/10/12 00:00:24;;;;;;;14.93;6.10;;;17.70;1.00;;;;;;5020501;28;20468;-75
2023/10/12 00:02:53;;;;;;;14.87;6.97;;;17.80;1.00;;;;;;5023946;28;20954;-76
2023/10/12 00:05:19;;;;;;;13.13;6.20;;;18.00;1.00;;;;;;5023851;28;20504;-76
2023/10/12 00:07:49;;;;;;;13.90;6.03;;;18.30;1.00;;;;;;5028693;28;20467;-76
2023/10/12 00:12:44;;;;;;;18.20;5.57;;;18.60;1.00;;;;;;5027158;28;20479;-76
2023/10/12 00:15:29;;;;;;;11.90;6.60;;;18.80;1.00;;;;;;5026218;28;20548;-74
2023/10/12 00:18:04;;;;;;;14.17;6.40;;;18.80;1.00;;;;;;5024616;28;20494;-75
2023/10/12 00:22:58;;;;;;;12.50;6.30;;;18.70;1.00;;;;;;5028974;28;20464;-75
2023/10/12 00:25:25;;;;;;;18.23;6.60;;;18.70;1.00;;;;;;5018453;28;20210;-75
2023/10/12 00:27:51;;;;;;;21.40;6.40;;;18.80;1.00;;;;;;5019705;28;20440;-74
2023/10/12 00:30:17;;;;;;;11.23;5.73;;;18.70;1.00;;;;;;5014745;28;20845;-75
2023/10/12 00:32:43;;;;;;;13.50;6.00;;;18.80;1.00;;;;;;5028108;28;20447;-75
2023/10/12 00:35:14;;;;;;;13.20;6.77;;;18.80;1.00;;;;;;5028066;28;20497;-78
2023/10/12 00:37:41;;;;;;;20.40;6.60;;;18.80;1.00;;;;;;5022945;28;20428;-77
2023/10/12 00:40:30;;;;;;;14.30;6.40;;;18.70;1.00;;;;;;5026451;28;20811;-75
2023/10/12 00:42:59;;;;;;;13.67;5.73;;;18.70;1.00;;;;;;5022917;28;20514;-75
2023/10/12 00:45:29;;;;;;;12.43;6.90;;;18.80;1.00;;;;;;5024367;28;20754;-75
2023/10/12 00:47:56;;;;;;;18.30;6.43;;;18.80;1.00;;;;;;5026527;28;20536;-75
2023/10/12 00:50:23;;;;;;;16.03;5.80;;;18.80;1.00;;;;;;5023845;28;20490;-75
2023/10/12 00:53:02;;;;;;;10.50;6.13;;;18.80;1.00;;;;;;5022030;28;20444;-76
2023/10/12 00:55:37;;;;;;;11.57;5.83;;;18.80;1.00;;;;;;5027267;28;21014;-77
2023/10/12 00:58:08;;;;;;;18.60;6.60;;;18.80;1.00;;;;;;5027153;28;20426;-74
2023/10/12 01:00:36;;;;;;;12.57;6.27;;;18.80;1.00;;;;;;5024945;28;20447;-75
2023/10/12 01:03:27;;;;;;;15.00;6.70;;;18.90;1.00;;;;;;5023637;28;20543;-74
2023/10/12 01:08:44;;;;;;;12.97;6.27;;;18.90;1.00;;;;;;5016847;28;20500;-75
2023/10/12 01:11:20;;;;;;;11.63;6.70;;;18.80;1.00;;;;;;5022496;28;20529;-76
2023/10/12 01:14:02;;;;;;;11.53;5.73;;;18.80;1.00;;;;;;5013105;28;20450;-75
2023/10/12 01:16:42;;;;;;;13.43;6.50;;;18.80;1.00;;;;;;5024361;28;20914;-75
2023/10/12 01:19:08;;;;;;;13.93;6.70;;;18.80;1.00;;;;;;5027347;28;20439;-75
2023/10/12 01:21:36;;;;;;;11.73;6.07;;;18.80;1.00;;;;;;5026636;28;20428;-75
2023/10/12 01:24:14;;;;;;;13.83;6.57;;;18.80;1.00;;;;;;5027067;28;21041;-75
2023/10/12 01:26:44;;;;;;;15.30;7.07;;;18.70;1.00;;;;;;5013499;28;20435;-78
2023/10/12 01:29:19;;;;;;;11.70;6.50;;;18.60;1.00;;;;;;5019862;28;20505;-77
2023/10/12 01:31:51;;;;;;;9.70;6.27;;;18.60;1.00;;;;;;5017403;28;20431;-76
2023/10/12 01:34:17;;;;;;;14.60;6.60;;;18.50;1.00;;;;;;5022144;28;20535;-78
2023/10/12 01:36:43;;;;;;;10.27;6.47;;;18.50;1.00;;;;;;5021135;28;20824;-78
2023/10/12 01:39:14;;;;;;;14.33;6.37;;;18.50;1.00;;;;;;5025207;28;20203;-75
2023/10/12 01:41:40;;;;;;;11.93;6.43;;;18.40;1.00;;;;;;5026706;28;20438;-75
2023/10/12 01:44:10;;;;;;;13.30;6.40;;;18.30;1.00;;;;;;5019509;28;20518;-75
2023/10/12 01:46:39;;;;;;;10.93;6.30;;;18.30;1.00;;;;;;5027206;28;20436;-75
2023/10/12 01:49:06;;;;;;;12.20;6.00;;;18.20;1.00;;;;;;5030966;28;20573;-75
2023/10/12 01:51:33;;;;;;;19.10;7.00;;;18.20;1.00;;;;;;5030516;28;20431;-76
2023/10/12 01:53:59;;;;;;;11.10;6.43;;;18.10;1.00;;;;;;5028175;28;20460;-75
2023/10/12 01:56:29;;;;;;;13.37;6.03;;;18.00;1.00;;;;;;5027563;28;20442;-75
2023/10/12 01:58:55;;;;;;;16.00;6.60;;;18.00;1.00;;;;;;5029398;28;20531;-75
2023/10/12 02:01:21;;;;;;;17.07;7.23;;;18.00;1.00;;;;;;5032486;28;20455;-75
2023/10/12 02:03:53;;;;;;;12.43;7.57;;;17.90;1.00;;;;;;5029993;28;20484;-75
2023/10/12 02:06:22;;;;;;;9.60;6.40;;;17.90;1.00;;;;;;5028566;28;20604;-73
2023/10/12 02:08:52;;;;;;;16.27;6.37;;;17.80;1.00;;;;;;5030312;28;20429;-75
2023/10/12 02:13:48;;;;;;;12.00;6.83;;;17.70;1.00;;;;;;5031272;28;20546;-77
2023/10/12 02:16:23;;;;;;;13.53;7.13;;;17.70;1.00;;;;;;5018630;28;20224;-74
2023/10/12 02:18:50;;;;;;;13.00;6.37;;;17.60;1.00;;;;;;5027420;28;20431;-75
2023/10/12 02:21:25;;;;;;;15.00;6.50;;;17.60;1.00;;;;;;5024221;28;20461;-74
2023/10/12 02:26:34;;;;;;;17.43;7.20;;;17.40;1.00;;;;;;5031528;28;20508;-76
2023/10/12 02:34:20;;;;;;;17.07;6.50;;;17.30;1.00;;;;;;5021200;28;20455;-75
2023/10/12 02:39:40;;;;;;;9.87;6.37;;;17.10;1.00;;;;;;5024458;28;20423;-75
2023/10/12 02:44:35;;;;;;;12.67;6.60;;;16.90;1.00;;;;;;5027530;28;20459;-75
2023/10/12 02:47:09;;;;;;;9.93;6.23;;;16.90;1.00;;;;;;5027694;28;20463;-75
2023/10/12 02:49:39;;;;;;;17.53;6.63;;;16.80;1.00;;;;;;5021516;28;20432;-74
2023/10/12 02:52:08;;;;;;;11.90;7.13;;;16.80;1.00;;;;;;5025146;28;20428;-74
2023/10/12 02:54:41;;;;;;;15.20;6.53;;;16.80;1.00;;;;;;5028603;28;20523;-74
2023/10/12 02:57:07;;;;;;;11.23;6.23;;;16.80;1.00;;;;;;5028689;28;20442;-77
2023/10/12 02:59:38;;;;;;;11.90;6.63;;;16.80;1.00;;;;;;5032097;28;21054;-75
2023/10/12 03:02:22;;;;;;;12.90;7.10;;;16.80;1.00;;;;;;5023806;28;20746;-77
2023/10/12 03:04:48;;;;;;;13.73;6.77;;;16.80;1.00;;;;;;5023723;28;20460;-74
2023/10/12 03:07:22;;;;;;;13.07;6.10;;;16.80;1.00;;;;;;5030328;28;20409;-75
2023/10/12 03:09:58;;;;;;;14.07;7.00;;;16.80;1.00;;;;;;5031647;28;20880;-74
2023/10/12 03:12:25;;;;;;;10.53;6.23;;;16.80;1.00;;;;;;5031556;28;20462;-72
2023/10/12 03:14:51;;;;;;;9.87;6.87;;;16.80;1.00;;;;;;5031716;28;20458;-74
2023/10/12 03:17:24;;;;;;;9.17;6.70;;;16.80;1.00;;;;;;5031737;28;20421;-74
2023/10/12 03:19:55;;;;;;;12.30;7.30;;;16.80;1.00;;;;;;5031497;28;20412;-74
2023/10/12 03:22:32;;;;;;;15.20;7.40;;;16.70;1.00;;;;;;5031951;28;20786;-75
2023/10/12 03:25:19;;;;;;;12.20;6.60;;;16.70;1.00;;;;;;5031580;28;20460;-74
2023/10/12 03:27:50;;;;;;;11.20;7.00;;;16.60;1.00;;;;;;5031215;28;20443;-74
2023/10/12 03:30:17;;;;;;;12.67;6.67;;;16.50;1.00;;;;;;5031179;28;20417;-75
2023/10/12 03:32:44;;;;;;;12.10;6.63;;;16.50;1.00;;;;;;5031119;28;20832;-75
2023/10/12 03:35:13;;;;;;;14.03;6.57;;;16.50;1.00;;;;;;5031119;28;20425;-75
2023/10/12 03:38:00;;;;;;;10.40;7.03;;;16.50;1.00;;;;;;5031280;28;20417;-74
2023/10/12 03:43:20;;;;;;;9.90;6.20;;;16.40;1.00;;;;;;5025911;28;20440;-74
2023/10/12 03:46:00;;;;;;;16.53;7.10;;;16.40;1.00;;;;;;5030826;28;20448;-74
2023/10/12 03:48:37;;;;;;;11.20;6.33;;;16.40;1.00;;;;;;5031124;28;20400;-74
2023/10/12 03:53:56;;;;;;;16.53;7.53;;;16.40;1.00;;;;;;5031059;28;20519;-76
2023/10/12 03:56:23;;;;;;;15.73;6.63;;;16.50;1.00;;;;;;5030394;28;20425;-74
2023/10/12 03:58:58;;;;;;;13.80;6.90;;;16.40;1.00;;;;;;5030146;28;20428;-76
2023/10/12 04:01:30;;;;;;;14.60;6.93;;;16.40;1.00;;;;;;5030727;28;20423;-74
2023/10/12 04:03:58;;;;;;;9.40;6.50;;;16.30;1.00;;;;;;5023609;28;20499;-73
2023/10/12 04:06:29;;;;;;;12.63;6.60;;;16.30;1.00;;;;;;5030693;28;20424;-74
2023/10/12 04:08:58;;;;;;;18.03;6.50;;;16.20;1.00;;;;;;5030829;28;20452;-75
2023/10/12 04:11:47;;;;;;;12.37;6.60;;;16.20;1.00;;;;;;5045867;28;20447;-74
2023/10/12 04:17:09;;;;;;;14.20;6.80;;;16.10;1.00;;;;;;5022689;28;20443;-73
2023/10/12 04:19:35;;;;;;;11.90;6.40;;;16.00;1.00;;;;;;5030346;28;20431;-75
2023/10/12 04:22:17;;;;;;;14.03;6.57;;;16.00;1.00;;;;;;5030533;28;20440;-73
2023/10/12 04:24:43;;;;;;;15.37;6.40;;;16.00;1.00;;;;;;5045434;28;20255;-75
2023/10/12 04:28:00;;;;;;;13.50;6.80;;;16.00;1.00;;;;;;5030066;28;20433;-75
2023/10/12 04:29:57;;;;;;;11.17;6.33;;;16.00;1.00;;;;;;5032912;28;20273;-75
2023/10/12 04:32:51;;;;;;;12.30;6.47;;;16.00;1.00;;;;;;5030248;28;20433;-75
2023/10/12 04:35:33;;;;;;;11.63;6.37;;;16.00;1.00;;;;;;5024761;28;20618;-74
2023/10/12 04:38:08;;;;;;;8.93;5.90;;;16.00;1.00;;;;;;5030205;28;20420;-74
2023/10/12 04:40:37;;;;;;;14.63;6.77;;;16.00;1.00;;;;;;5029772;28;20419;-74
2023/10/12 04:43:06;;;;;;;9.00;5.80;;;16.00;1.00;;;;;;5030503;28;20455;-74
2023/10/12 04:46:05;;;;;;;9.67;6.50;;;16.00;1.00;;;;;;5030024;28;20466;-77
2023/10/12 04:48:21;;;;;;;10.60;6.80;;;16.00;1.00;;;;;;5024788;28;20519;-74
2023/10/12 04:50:52;;;;;;;15.57;7.60;;;16.00;1.00;;;;;;5029503;28;20421;-74
2023/10/12 04:53:19;;;;;;;15.90;7.83;;;15.90;1.00;;;;;;5030022;28;20715;-74
2023/10/12 04:55:47;;;;;;;16.10;7.33;;;15.90;1.00;;;;;;5029407;28;20420;-73
2023/10/12 04:58:31;;;;;;;9.80;7.20;;;16.00;1.00;;;;;;5029843;28;20448;-74
2023/10/12 05:01:12;;;;;;;11.63;6.90;;;15.90;1.00;;;;;;5029164;28;20423;-74
2023/10/12 05:03:39;;;;;;;12.10;6.60;;;15.90;1.00;;;;;;5029475;28;20471;-75
2023/10/12 05:06:08;;;;;;;12.27;6.43;;;15.70;1.00;;;;;;5029964;28;20413;-73
2023/10/12 05:08:34;;;;;;;15.30;6.73;;;15.80;1.00;;;;;;5029912;28;20423;-74
2023/10/12 05:11:00;;;;;;;13.60;7.53;;;15.90;1.00;;;;;;5029568;28;20415;-76
2023/10/12 05:13:26;;;;;;;11.30;6.93;;;15.90;1.00;;;;;;5029279;28;20440;-74
2023/10/12 05:15:55;;;;;;;10.83;6.97;;;15.90;1.00;;;;;;5029674;28;20174;-74
2023/10/12 05:18:25;;;;;;;11.40;6.50;;;15.90;1.00;;;;;;5029544;28;20174;-75
2023/10/12 05:20:51;;;;;;;10.93;6.03;;;15.90;1.00;;;;;;5029406;28;20458;-77
2023/10/12 05:23:17;;;;;;;15.60;7.43;;;15.90;1.00;;;;;;5029458;28;20429;-73
2023/10/12 05:28:31;;;;;;;11.27;6.40;;;15.90;1.00;;;;;;5029644;28;20440;-74
2023/10/12 05:36:09;;;;;;;12.53;6.50;;;15.80;1.00;;;;;;5028840;28;20420;-74
2023/10/12 05:38:39;;;;;;;12.50;6.90;;;15.80;1.00;;;;;;5029271;28;20503;-73
2023/10/12 05:41:08;;;;;;;11.43;6.37;;;15.70;1.00;;;;;;5021532;28;20863;-74
2023/10/12 05:43:36;;;;;;;13.60;7.20;;;15.60;1.00;;;;;;5028708;28;20964;-74
2023/10/12 05:46:10;;;;;;;15.93;6.97;;;15.60;1.00;;;;;;5028770;28;20416;-73
2023/10/12 05:48:40;;;;;;;11.00;5.93;;;15.60;1.00;;;;;;5029287;28;20450;-74
2023/10/12 05:51:09;;;;;;;14.20;7.17;;;15.60;1.00;;;;;;5021444;28;20427;-74
2023/10/12 05:53:35;;;;;;;12.53;7.00;;;15.80;1.00;;;;;;5029329;28;20850;-75
2023/10/12 05:56:01;;;;;;;8.83;6.57;;;16.00;1.00;;;;;;5028406;28;20521;-74
2023/10/12 05:58:26;;;;;;;13.37;6.87;;;16.00;1.00;;;;;;5029296;28;20318;-75
2023/10/12 06:00:53;;;;;;;11.03;6.80;;;16.10;1.00;;;;;;5043888;28;20265;-74
2023/10/12 06:03:21;;;;;;;12.90;7.40;;;16.20;1.00;;;;;;5029038;28;20691;-74
2023/10/12 06:05:47;;;;;;;13.50;7.43;;;16.30;1.00;;;;;;5028749;28;20534;-74
2023/10/12 06:08:17;;;;;;;14.17;7.97;;;16.30;1.00;;;;;;5029090;28;20432;-76
2023/10/12 06:10:42;;;;;;;14.63;7.37;;;16.50;1.00;;;;;;5028270;28;20467;-74
2023/10/12 06:13:09;;;;;;;30.30;9.33;;;16.60;1.00;;;;;;5029079;28;20487;-73
2023/10/12 06:15:40;;;;;;;25.93;8.57;;;16.70;1.00;;;;;;5028990;28;20174;-74
2023/10/12 06:18:21;;;;;;;32.23;7.80;;;16.80;1.00;;;;;;5021069;28;20433;-75
2023/10/12 06:20:58;;;;;;;15.77;7.50;;;16.90;1.00;;;;;;5028669;28;20415;-74
2023/10/12 06:23:24;;;;;;;17.27;7.60;;;17.10;1.00;;;;;;5028014;28;20496;-75
2023/10/12 06:25:50;;;;;;;19.13;8.30;;;17.30;1.00;;;;;;5030570;28;20197;-76
2023/10/12 06:28:17;;;;;;;13.63;7.87;;;17.50;1.00;;;;;;5033133;28;20432;-74
2023/10/12 06:30:46;;;;;;;17.40;7.90;;;18.90;1.00;;;;;;5032523;28;20177;-75
2023/10/12 06:33:14;;;;;;;12.70;7.30;;;17.60;1.00;;;;;;5032888;28;20435;-75
2023/10/12 06:35:58;;;;;;;10.83;7.57;;;17.60;1.00;;;;;;5031922;28;20799;-72
2023/10/12 06:38:47;;;;;;;12.10;7.30;;;17.70;1.00;;;;;;5032585;28;20431;-74
2023/10/12 06:44:26;;;;;;;22.03;7.70;;;17.90;1.00;;;;;;5049427;28;20641;-74
2023/10/12 06:46:53;;;;;;;17.77;7.93;;;18.20;1.00;;;;;;5026145;28;20471;-74
2023/10/12 06:49:23;;;;;;;16.47;7.80;;;18.40;1.00;;;;;;5032173;28;20421;-74
2023/10/12 06:52:10;;;;;;;21.83;7.97;;;18.60;1.00;;;;;;5031998;28;20416;-75
2023/10/12 07:02:28;;;;;;;18.33;7.53;;;18.90;1.00;;;;;;5025590;28;20455;-73
2023/10/12 07:04:55;;;;;;;12.63;7.27;;;19.10;1.00;;;;;;5031366;28;20539;-76
2023/10/12 07:07:28;;;;;;;15.43;7.30;;;19.20;1.00;;;;;;5031884;28;20419;-74
2023/10/12 07:12:48;;;;;;;15.20;7.40;;;19.60;1.00;;;;;;5031952;28;20428;-74
2023/10/12 07:15:19;;;;;;;11.10;7.03;;;19.70;1.00;;;;;;5031667;28;20408;-74
2023/10/12 07:17:49;;;;;;;14.93;6.67;;;19.80;1.00;;;;;;5031811;28;20435;-74
2023/10/12 07:22:57;;;;;;;12.50;7.30;;;19.90;1.00;;;;;;5031539;28;20436;-75
2023/10/12 07:25:25;;;;;;;12.47;7.37;;;20.00;1.00;;;;;;5046827;28;20447;-73
2023/10/12 07:27:59;;;;;;;13.53;7.27;;;20.10;1.00;;;;;;5031383;28;20459;-74
2023/10/12 07:30:33;;;;;;;12.37;7.17;;;20.10;1.00;;;;;;5046450;28;20447;-76
2023/10/12 07:33:07;;;;;;;15.67;7.43;;;20.20;1.00;;;;;;5031438;28;20442;-73
2023/10/12 07:35:34;;;;;;;13.43;6.80;;;20.20;1.00;;;;;;5046440;28;20428;-74
2023/10/12 07:38:01;;;;;;;14.10;7.23;;;20.30;1.00;;;;;;5031052;28;20412;-73
2023/10/12 07:40:34;;;;;;;19.73;7.27;;;20.40;1.00;;;;;;5031056;28;20420;-74
2023/10/12 07:43:07;;;;;;;19.00;7.63;;;20.50;1.00;;;;;;5031132;28;21024;-73
2023/10/12 07:45:47;;;;;;;12.53;7.00;;;20.70;1.00;;;;;;5031216;28;20459;-76
2023/10/12 07:48:21;;;;;;;17.33;7.50;;;20.80;1.00;;;;;;5031139;28;20879;-75
2023/10/12 07:50:47;;;;;;;19.10;7.57;;;21.00;1.00;;;;;;5029048;28;20760;-74
2023/10/12 07:53:25;;;;;;;15.87;7.53;;;21.20;1.00;;;;;;5030741;28;20421;-74
2023/10/12 07:56:00;;;;;;;17.67;7.20;;;21.30;1.00;;;;;;5030906;28;20184;-72
2023/10/12 07:58:29;;;;;;;15.40;7.70;;;21.80;1.00;;;;;;5031235;28;20439;-74
2023/10/12 08:03:50;;;;;;;16.07;7.23;;;22.20;1.00;;;;;;5030923;28;20430;-76
2023/10/12 08:06:29;;;;;;;11.97;7.00;;;22.30;1.00;;;;;;5030779;28;20404;-74
2023/10/12 08:09:03;;;;;;;12.03;6.77;;;22.20;1.00;;;;;;5030585;28;20846;-73
2023/10/12 08:11:31;;;;;;;15.03;6.80;;;22.50;1.00;;;;;;5030569;28;20407;-75
2023/10/12 08:13:59;;;;;;;18.13;6.57;;;22.60;1.00;;;;;;5030387;28;20436;-76
2023/10/12 08:16:28;;;;;;;10.03;5.93;;;22.60;1.00;;;;;;5030610;28;20416;-75
2023/10/12 08:21:24;;;;;;;17.83;6.40;;;22.30;1.00;;;;;;5030655;28;20420;-74
2023/10/12 08:24:01;;;;;;;11.50;6.77;;;22.30;1.00;;;;;;5030429;28;20597;-74
2023/10/12 08:26:47;;;;;;;13.00;6.70;;;22.80;1.00;;;;;;5023780;28;20691;-76
2023/10/12 08:31:49;;;;;;;10.77;6.63;;;22.30;1.00;;;;;;5030431;28;20412;-74
2023/10/12 08:39:39;;;;;;;17.47;7.10;;;23.00;1.00;;;;;;5030550;28;20420;-73
2023/10/12 08:44:51;;;;;;;13.83;6.70;;;23.10;1.00;;;;;;5030272;28;20450;-74
2023/10/12 08:47:44;;;;;;;11.47;6.43;;;23.10;1.00;;;;;;5029506;28;20420;-74
2023/10/12 08:52:52;;;;;;;12.23;6.37;;;23.20;1.00;;;;;;5030520;28;20767;-75
2023/10/12 08:55:19;;;;;;;18.40;6.40;;;23.40;1.00;;;;;;5029646;28;20408;-74
2023/10/12 08:57:55;;;;;;;10.53;5.87;;;23.70;1.00;;;;;;5029996;28;20914;-74
2023/10/12 09:05:51;;;;;;;15.73;6.90;;;25.10;1.00;;;;;;5030006;28;20452;-75
2023/10/12 09:10:51;;;;;;;19.30;6.50;;;26.10;1.00;;;;;;5029684;28;20914;-77
2023/10/12 09:13:21;;;;;;;12.77;6.60;;;26.50;1.00;;;;;;5029755;28;20756;-74
2023/10/12 09:15:55;;;;;;;14.83;6.73;;;27.10;1.00;;;;;;5029684;28;20865;-75
2023/10/12 09:18:24;;;;;;;10.90;6.50;;;28.10;1.00;;;;;;5044986;28;20177;-75
2023/10/12 09:28:58;;;;;;;11.60;7.28;;;29.20;1.00;;;;;;5029509;28;20192;-74
2023/10/12 09:33:56;;;;;;;21.10;7.13;;;27.30;1.00;;;;;;5029681;28;20280;-76
2023/10/12 09:36:22;;;;;;;15.03;6.27;;;26.80;1.00;;;;;;5028865;28;20170;-75
2023/10/12 09:38:48;;;;;;;21.33;7.40;;;26.20;1.00;;;;;;5029155;28;20180;-75
2023/10/12 09:41:19;;;;;;;10.63;6.70;;;25.60;1.00;;;;;;5028999;28;20169;-74
2023/10/12 09:43:53;;;;;;;16.20;7.30;;;25.60;1.00;;;;;;5029378;28;20193;-75
2023/10/12 09:46:24;;;;;;;12.77;7.03;;;25.70;1.00;;;;;;5028964;28;20513;-75
2023/10/12 09:48:57;;;;;;;16.43;7.33;;;25.80;1.00;;;;;;5029090;28;20404;-74
2023/10/12 09:51:25;;;;;;;15.27;7.33;;;26.00;1.00;;;;;;5029109;28;20547;-76
2023/10/12 09:53:58;;;;;;;15.33;7.30;;;26.20;1.00;;;;;;5029367;28;20432;-74
2023/10/12 09:56:45;;;;;;;15.07;6.70;;;26.20;1.00;;;;;;5029147;28;20983;-75
2023/10/12 09:59:13;;;;;;;15.67;7.20;;;25.90;1.00;;;;;;5030102;28;20442;-75
2023/10/12 10:07:15;;;;;;;18.23;7.50;;;25.00;1.00;;;;;;5033113;28;20166;-74
2023/10/12 10:09:49;;;;;;;18.13;7.63;;;24.80;1.00;;;;;;5026906;28;20793;-74
2023/10/12 10:12:16;;;;;;;12.70;7.17;;;24.40;1.00;;;;;;5032667;28;20431;-74
2023/10/12 10:14:44;;;;;;;14.50;7.47;;;24.30;1.00;;;;;;5033127;28;20469;-74
2023/10/12 10:17:17;;;;;;;14.10;7.60;;;24.20;1.00;;;;;;5032613;28;20821;-77
2023/10/12 10:19:51;;;;;;;15.70;6.90;;;24.10;1.00;;;;;;5032963;28;20425;-74
2023/10/12 10:22:20;;;;;;;12.27;7.43;;;23.60;1.00;;;;;;5032653;28;20436;-74
2023/10/12 10:24:50;;;;;;;11.43;6.57;;;23.50;1.00;;;;;;5032656;28;20877;-74
2023/10/12 10:27:16;;;;;;;14.73;7.17;;;23.30;1.00;;;;;;5032391;28;20428;-74
2023/10/12 10:30:00;;;;;;;12.43;6.63;;;23.40;1.00;;;;;;5032676;28;20415;-74
2023/10/12 10:32:29;;;;;;;16.13;7.27;;;23.30;1.00;;;;;;5032505;28;20798;-74
2023/10/12 10:34:58;;;;;;;15.20;7.43;;;23.30;1.00;;;;;;5032304;28;20765;-73
2023/10/12 10:37:47;;;;;;;13.30;7.03;;;23.40;1.00;;;;;;5032093;28;20930;-74
2023/10/12 10:40:39;;;;;;;17.57;6.73;;;23.50;1.00;;;;;;5031959;28;20415;-73
2023/10/12 10:43:08;;;;;;;17.87;6.70;;;23.70;1.00;;;;;;5032342;28;20917;-74
2023/10/12 10:45:37;;;;;;;21.63;7.23;;;23.80;1.00;;;;;;5032293;28;20447;-73
2023/10/12 10:48:04;;;;;;;14.73;6.50;;;23.80;1.00;;;;;;5032429;28;20903;-74
2023/10/12 10:50:33;;;;;;;13.23;6.80;;;23.70;1.00;;;;;;5032106;28;20444;-74
2023/10/12 10:52:59;;;;;;;24.73;7.00;;;23.60;1.00;;;;;;5032349;28;20474;-73
2023/10/12 10:55:30;;;;;;;11.50;6.60;;;23.60;1.00;;;;;;5031945;28;20447;-74
2023/10/12 10:57:57;;;;;;;15.50;7.10;;;23.50;1.00;;;;;;5032250;28;20419;-75
2023/10/12 11:00:33;;;;;;;20.47;7.03;;;23.50;1.00;;;;;;5031602;28;20943;-74
2023/10/12 11:03:03;;;;;;;15.80;7.10;;;23.40;1.00;;;;;;5031770;28;21016;-76
2023/10/12 11:05:29;;;;;;;16.83;7.13;;;23.40;1.00;;;;;;5031899;28;20460;-76
2023/10/12 11:07:54;;;;;;;18.00;7.33;;;23.30;1.00;;;;;;5032019;28;20419;-76
2023/10/12 11:10:31;;;;;;;15.70;7.03;;;23.30;1.00;;;;;;5031067;28;20431;-74
2023/10/12 11:13:00;;;;;;;18.33;7.50;;;23.20;1.00;;;;;;5031798;28;20764;-77
2023/10/12 11:15:26;;;;;;;24.50;7.00;;;23.30;1.00;;;;;;5031580;28;20448;-74
2023/10/12 11:18:07;;;;;;;12.87;6.90;;;23.30;1.00;;;;;;5031749;28;20415;-74
2023/10/12 11:20:43;;;;;;;13.13;6.97;;;23.30;1.00;;;;;;5032157;28;20530;-76
2023/10/12 11:23:10;;;;;;;17.57;7.23;;;23.30;1.00;;;;;;5031270;28;20447;-75
2023/10/12 11:25:39;;;;;;;16.20;7.90;;;23.30;1.00;;;;;;5031655;28;20470;-75
2023/10/12 11:28:22;;;;;;;11.57;7.27;;;23.30;1.00;;;;;;5031685;28;21120;-74
2023/10/12 11:30:51;;;;;;;13.00;7.07;;;23.50;1.00;;;;;;5027574;28;20542;-74
2023/10/12 11:33:23;;;;;;;18.37;6.90;;;23.40;1.00;;;;;;5031131;28;20489;-74
2023/10/12 11:35:49;;;;;;;14.80;7.37;;;23.30;1.00;;;;;;5030902;28;20774;-74
2023/10/12 11:38:17;;;;;;;16.53;7.37;;;23.20;1.00;;;;;;5031341;28;20502;-75
2023/10/12 11:40:44;;;;;;;15.23;7.53;;;23.20;1.00;;;;;;5030884;28;20177;-74
2023/10/12 11:43:10;;;;;;;20.17;7.63;;;22.80;1.00;;;;;;5030980;28;20528;-74
2023/10/12 11:45:35;;;;;;;11.90;7.20;;;22.80;1.00;;;;;;5031136;28;20484;-74
2023/10/12 11:48:21;;;;;;;20.10;7.60;;;22.60;1.00;;;;;;5031090;28;20672;-75
2023/10/12 11:50:48;;;;;;;13.40;7.27;;;22.50;1.00;;;;;;5024490;28;20649;-76
2023/10/12 11:53:17;;;;;;;12.90;7.57;;;22.30;1.00;;;;;;5030855;28;20556;-74
2023/10/12 11:55:44;;;;;;;16.07;7.30;;;22.20;1.00;;;;;;5031041;28;20803;-75
2023/10/12 11:58:13;;;;;;;14.93;7.50;;;22.20;1.00;;;;;;5031131;28;20424;-74
2023/10/12 12:00:44;;;;;;;12.90;7.73;;;22.10;1.00;;;;;;5028452;28;20411;-76
2023/10/12 12:03:10;;;;;;;19.13;7.67;;;22.00;1.00;;;;;;5030987;28;20519;-74
2023/10/12 12:05:36;;;;;;;18.90;7.80;;;22.00;1.00;;;;;;5030816;28;20454;-74
2023/10/12 12:08:14;;;;;;;15.83;7.37;;;22.00;1.00;;;;;;5030828;28;20498;-74
2023/10/12 12:13:15;;;;;;;15.30;7.80;;;22.10;1.00;;;;;;5030387;28;20431;-74
2023/10/12 12:15:44;;;;;;;14.63;7.60;;;22.10;1.00;;;;;;5030648;28;20407;-73
2023/10/12 12:18:18;;;;;;;14.30;7.83;;;22.10;1.00;;;;;;5030714;28;20425;-76
2023/10/12 12:20:45;;;;;;;14.87;6.93;;;22.10;1.00;;;;;;5023124;28;20446;-76
2023/10/12 12:23:14;;;;;;;14.37;7.30;;;22.10;1.00;;;;;;5029555;28;20450;-76
2023/10/12 12:25:40;;;;;;;14.50;6.97;;;22.10;1.00;;;;;;5030128;28;20451;-74
2023/10/12 12:28:07;;;;;;;15.20;6.93;;;22.00;1.00;;;;;;5030488;28;20427;-74
2023/10/12 12:30:39;;;;;;;16.80;7.73;;;22.00;1.00;;;;;;5029860;28;20924;-75
2023/10/12 12:33:08;;;;;;;14.37;7.20;;;21.90;1.00;;;;;;5030202;28;20486;-75
2023/10/12 12:35:38;;;;;;;15.63;8.03;;;21.90;1.00;;;;;;5029716;28;20416;-74
2023/10/12 12:38:43;;;;;;;16.57;7.37;;;21.90;1.00;;;;;;5030633;28;20562;-75
2023/10/12 12:41:18;;;;;;;13.47;7.23;;;21.90;1.00;;;;;;5025903;28;20418;-73
2023/10/12 12:43:44;;;;;;;15.00;7.10;;;21.80;1.00;;;;;;5022876;28;20446;-74
2023/10/12 12:46:11;;;;;;;13.97;7.40;;;21.80;1.00;;;;;;5029907;28;20490;-74
2023/10/12 12:48:37;;;;;;;13.53;7.30;;;21.80;1.00;;;;;;5029721;28;20767;-75
2023/10/12 12:51:03;;;;;;;12.70;7.93;;;21.80;1.00;;;;;;5030032;28;20409;-73
2023/10/12 12:53:33;;;;;;;12.23;7.80;;;21.80;1.00;;;;;;5028461;28;20348;-75
2023/10/12 12:56:02;;;;;;;14.47;7.63;;;21.80;1.00;;;;;;5029519;28;20173;-74
2023/10/12 12:58:28;;;;;;;16.37;8.00;;;21.70;1.00;;;;;;5029858;28;20444;-74
2023/10/12 13:00:53;;;;;;;16.93;7.40;;;21.70;1.00;;;;;;5029544;28;20445;-74
2023/10/12 13:03:19;;;;;;;15.60;7.70;;;21.60;1.00;;;;;;5029317;28;20535;-75
2023/10/12 13:05:46;;;;;;;20.70;8.17;;;21.60;1.00;;;;;;5029782;28;20208;-74
2023/10/12 13:08:12;;;;;;;14.03;8.10;;;21.60;1.00;;;;;;5029919;28;20610;-75
2023/10/12 13:10:38;;;;;;;10.47;7.23;;;21.50;1.00;;;;;;5029275;28;20511;-75
2023/10/12 13:13:04;;;;;;;15.60;7.70;;;21.40;1.00;;;;;;5029668;28;20197;-75
2023/10/12 13:15:41;;;;;;;10.83;7.10;;;21.40;1.00;;;;;;5029203;28;20412;-75
2023/10/12 13:18:14;;;;;;;13.67;7.40;;;21.40;1.00;;;;;;5029726;28;20420;-76
2023/10/12 13:20:46;;;;;;;14.70;7.80;;;21.40;1.00;;;;;;5029267;28;20444;-74
2023/10/12 13:23:18;;;;;;;18.50;7.73;;;21.30;1.00;;;;;;5029562;28;20526;-74
2023/10/12 13:25:44;;;;;;;16.00;7.83;;;19.20;1.00;;;;;;5021204;28;20973;-74
2023/10/12 13:28:10;;;;;;;17.57;8.80;;;21.20;1.00;;;;;;5029269;28;20454;-73
2023/10/12 13:30:39;;;;;;;15.77;9.67;;;21.10;1.00;;;;;;5029000;28;20871;-74
2023/10/12 13:33:06;;;;;;;15.83;9.30;;;21.00;1.00;;;;;;5029263;28;20431;-74
2023/10/12 13:35:37;;;;;;;20.50;8.93;;;21.00;1.00;;;;;;5028392;28;20420;-75
2023/10/12 13:38:03;;;;;;;17.10;9.47;;;20.70;1.00;;;;;;5029244;28;20495;-74
2023/10/12 13:40:29;;;;;;;19.90;10.03;;;20.40;1.00;;;;;;5044116;28;20412;-74
2023/10/12 13:43:01;;;;;;;15.17;9.80;;;19.90;1.00;;;;;;5029250;28;20581;-74
2023/10/12 13:45:28;;;;;;;19.13;9.37;;;19.80;1.00;;;;;;5029088;28;20455;-75
2023/10/12 13:47:54;;;;;;;19.93;11.13;;;19.70;1.00;;;;;;5029558;28;20408;-76
2023/10/12 13:50:20;;;;;;;19.87;10.90;;;19.80;1.00;;;;;;5029185;28;20802;-74
2023/10/12 13:52:45;;;;;;;20.30;10.60;;;20.00;1.00;;;;;;5029231;28;20746;-74
2023/10/12 13:55:14;;;;;;;20.23;11.43;;;20.10;1.00;;;;;;5029026;28;20201;-75
2023/10/12 13:57:57;;;;;;;24.43;11.60;;;20.30;1.00;;;;;;5028954;28;20540;-75
2023/10/12 14:00:27;;;;;;;26.77;10.97;;;20.40;1.00;;;;;;5028237;28;20521;-74
2023/10/12 14:02:58;;;;;;;23.00;10.07;;;20.50;1.00;;;;;;5029175;28;20445;-75
2023/10/12 14:05:27;;;;;;;19.67;11.10;;;20.50;1.00;;;;;;5029341;28;20466;-75
2023/10/12 14:07:54;;;;;;;19.30;10.13;;;20.30;1.00;;;;;;5028998;28;20566;-73
2023/10/12 14:10:23;;;;;;;17.83;10.80;;;20.20;1.00;;;;;;5028875;28;20419;-75
2023/10/12 14:12:53;;;;;;;18.70;10.27;;;20.20;1.00;;;;;;5029203;28;20424;-74
2023/10/12 14:15:22;;;;;;;20.97;11.50;;;20.30;1.00;;;;;;5028994;28;20412;-74
2023/10/12 14:17:54;;;;;;;26.30;10.80;;;20.40;1.00;;;;;;5020980;28;20985;-74
2023/10/12 14:20:26;;;;;;;22.20;11.10;;;20.40;1.00;;;;;;5028717;28;20482;-75
2023/10/12 14:22:58;;;;;;;19.07;11.13;;;20.50;1.00;;;;;;5021449;28;20499;-75
2023/10/12 14:25:28;;;;;;;21.90;11.33;;;20.50;1.00;;;;;;5028914;28;20574;-75
2023/10/12 14:27:55;;;;;;;21.40;11.40;;;20.50;1.00;;;;;;5029167;28;20436;-75
2023/10/12 14:30:28;;;;;;;17.00;11.17;;;20.50;1.00;;;;;;5029028;28;20887;-75
2023/10/12 14:32:57;;;;;;;18.80;10.40;;;20.50;1.00;;;;;;5021670;28;20910;-74
2023/10/12 14:35:25;;;;;;;33.67;12.30;;;20.50;1.00;;;;;;5028627;28;20466;-76
2023/10/12 14:37:54;;;;;;;29.13;11.50;;;23.00;1.00;;;;;;5028971;28;20408;-75
2023/10/12 14:40:20;;;;;;;17.90;10.90;;;20.60;1.00;;;;;;5028782;28;20474;-74
2023/10/12 14:42:45;;;;;;;20.03;11.63;;;20.70;1.00;;;;;;5028843;28;20784;-74
2023/10/12 14:45:15;;;;;;;18.87;11.40;;;20.70;1.00;;;;;;5028557;28;20288;-74